sensor_id;sensor_type;location;lat;lon;timestamp;P1;durP1;ratioP1;P2;durP2;ratioP2
22334;SDS011;11335;43.848;25.958;2022-07-06T00:00:57;7.63;;;4.55;;
22334;SDS011;11335;43.848;25.958;2022-07-06T00:03:43;6.20;;;4.60;;
22334;SDS011;11335;43.848;25.958;2022-07-06T00:06:29;9.77;;;4.35;;
22334;SDS011;11335;43.848;25.958;2022-07-06T00:09:15;13.63;;;4.50;;
22334;SDS011;11335;43.848;25.958;2022-07-06T00:12:01;10.98;;;4.13;;
22334;SDS011;11335;43.848;25.958;2022-07-06T00:14:47;8.32;;;4.57;;
22334;SDS011;11335;43.848;25.958;2022-07-06T00:17:32;6.45;;;4.68;;
22334;SDS011;11335;43.848;25.958;2022-07-06T00:20:19;7.25;;;4.50;;
22334;SDS011;11335;43.848;25.958;2022-07-06T00:23:05;9.50;;;4.22;;
22334;SDS011;11335;43.848;25.958;2022-07-06T00:25:51;5.90;;;4.47;;
22334;SDS011;11335;43.848;25.958;2022-07-06T00:28:37;8.38;;;4.40;;
22334;SDS011;11335;43.848;25.958;2022-07-06T00:31:22;4.68;;;4.22;;
22334;SDS011;11335;43.848;25.958;2022-07-06T00:34:08;4.90;;;4.10;;
22334;SDS011;11335;43.848;25.958;2022-07-06T00:36:54;5.85;;;4.18;;
22334;SDS011;11335;43.848;25.958;2022-07-06T00:39:40;11.23;;;4.65;;
22334;SDS011;11335;43.848;25.958;2022-07-06T00:42:26;8.30;;;4.80;;
22334;SDS011;11335;43.848;25.958;2022-07-06T00:45:12;6.25;;;4.70;;
22334;SDS011;11335;43.848;25.958;2022-07-06T00:47:59;9.13;;;6.25;;
22334;SDS011;11335;43.848;25.958;2022-07-06T00:50:44;9.05;;;6.50;;
22334;SDS011;11335;43.848;25.958;2022-07-06T00:53:30;8.93;;;6.63;;
22334;SDS011;11335;43.848;25.958;2022-07-06T00:56:16;12.48;;;6.70;;
22334;SDS011;11335;43.848;25.958;2022-07-06T00:59:02;20.58;;;8.30;;
22334;SDS011;11335;43.848;25.958;2022-07-06T01:01:48;17.55;;;8.43;;
22334;SDS011;11335;43.848;25.958;2022-07-06T01:04:34;15.77;;;9.00;;
22334;SDS011;11335;43.848;25.958;2022-07-06T01:07:20;16.50;;;9.32;;
22334;SDS011;11335;43.848;25.958;2022-07-06T01:10:06;15.43;;;10.07;;
22334;SDS011;11335;43.848;25.958;2022-07-06T01:12:53;20.60;;;10.73;;
22334;SDS011;11335;43.848;25.958;2022-07-06T01:15:39;17.20;;;10.68;;
22334;SDS011;11335;43.848;25.958;2022-07-06T01:18:25;17.15;;;10.77;;
22334;SDS011;11335;43.848;25.958;2022-07-06T01:21:12;18.35;;;11.18;;
22334;SDS011;11335;43.848;25.958;2022-07-06T01:23:59;21.65;;;10.73;;
22334;SDS011;11335;43.848;25.958;2022-07-06T01:26:45;19.38;;;11.35;;
22334;SDS011;11335;43.848;25.958;2022-07-06T01:29:31;16.67;;;11.88;;
22334;SDS011;11335;43.848;25.958;2022-07-06T01:32:17;17.17;;;11.32;;
22334;SDS011;11335;43.848;25.958;2022-07-06T01:35:04;14.88;;;11.65;;
22334;SDS011;11335;43.848;25.958;2022-07-06T01:37:52;25.02;;;12.32;;
22334;SDS011;11335;43.848;25.958;2022-07-06T01:40:37;17.27;;;11.52;;
22334;SDS011;11335;43.848;25.958;2022-07-06T01:43:23;17.58;;;11.65;;
22334;SDS011;11335;43.848;25.958;2022-07-06T01:46:09;20.13;;;11.27;;
22334;SDS011;11335;43.848;25.958;2022-07-06T01:48:55;17.05;;;12.07;;
22334;SDS011;11335;43.848;25.958;2022-07-06T01:51:41;21.45;;;12.18;;
22334;SDS011;11335;43.848;25.958;2022-07-06T01:54:27;14.30;;;11.15;;
22334;SDS011;11335;43.848;25.958;2022-07-06T01:57:14;17.95;;;11.82;;
22334;SDS011;11335;43.848;25.958;2022-07-06T01:59:59;16.90;;;11.05;;
22334;SDS011;11335;43.848;25.958;2022-07-06T02:02:45;15.63;;;10.77;;
22334;SDS011;11335;43.848;25.958;2022-07-06T02:05:31;13.77;;;11.23;;
22334;SDS011;11335;43.848;25.958;2022-07-06T02:08:17;17.15;;;11.10;;
22334;SDS011;11335;43.848;25.958;2022-07-06T02:11:03;14.85;;;10.45;;
22334;SDS011;11335;43.848;25.958;2022-07-06T02:13:50;16.48;;;10.85;;
22334;SDS011;11335;43.848;25.958;2022-07-06T02:16:35;19.83;;;11.18;;
22334;SDS011;11335;43.848;25.958;2022-07-06T02:19:22;14.85;;;10.88;;
22334;SDS011;11335;43.848;25.958;2022-07-06T02:22:08;14.70;;;11.02;;
22334;SDS011;11335;43.848;25.958;2022-07-06T02:24:53;15.40;;;11.40;;
22334;SDS011;11335;43.848;25.958;2022-07-06T02:27:39;16.83;;;11.32;;
22334;SDS011;11335;43.848;25.958;2022-07-06T02:30:25;14.18;;;10.82;;
22334;SDS011;11335;43.848;25.958;2022-07-06T02:33:11;13.68;;;11.25;;
22334;SDS011;11335;43.848;25.958;2022-07-06T02:35:57;18.25;;;11.50;;
22334;SDS011;11335;43.848;25.958;2022-07-06T02:38:42;15.10;;;12.02;;
22334;SDS011;11335;43.848;25.958;2022-07-06T02:41:28;14.23;;;11.15;;
22334;SDS011;11335;43.848;25.958;2022-07-06T02:44:14;18.58;;;12.20;;
22334;SDS011;11335;43.848;25.958;2022-07-06T02:46:59;18.48;;;12.38;;
22334;SDS011;11335;43.848;25.958;2022-07-06T02:49:45;15.15;;;11.90;;
22334;SDS011;11335;43.848;25.958;2022-07-06T02:52:31;15.52;;;12.40;;
22334;SDS011;11335;43.848;25.958;2022-07-06T02:55:17;14.45;;;12.48;;
22334;SDS011;11335;43.848;25.958;2022-07-06T02:58:03;16.63;;;12.23;;
22334;SDS011;11335;43.848;25.958;2022-07-06T03:00:48;16.00;;;12.80;;
22334;SDS011;11335;43.848;25.958;2022-07-06T03:03:34;15.70;;;11.60;;
22334;SDS011;11335;43.848;25.958;2022-07-06T03:06:20;15.27;;;12.13;;
22334;SDS011;11335;43.848;25.958;2022-07-06T03:09:06;14.10;;;12.15;;
22334;SDS011;11335;43.848;25.958;2022-07-06T03:11:51;15.05;;;12.32;;
22334;SDS011;11335;43.848;25.958;2022-07-06T03:14:37;14.32;;;12.15;;
22334;SDS011;11335;43.848;25.958;2022-07-06T03:17:23;14.38;;;10.68;;
22334;SDS011;11335;43.848;25.958;2022-07-06T03:20:09;13.27;;;11.88;;
22334;SDS011;11335;43.848;25.958;2022-07-06T03:22:55;14.10;;;12.00;;
22334;SDS011;11335;43.848;25.958;2022-07-06T03:25:41;15.10;;;11.93;;
22334;SDS011;11335;43.848;25.958;2022-07-06T03:28:26;15.23;;;12.15;;
22334;SDS011;11335;43.848;25.958;2022-07-06T03:31:12;18.38;;;12.40;;
22334;SDS011;11335;43.848;25.958;2022-07-06T03:33:58;17.35;;;12.73;;
22334;SDS011;11335;43.848;25.958;2022-07-06T03:36:43;17.23;;;13.65;;
22334;SDS011;11335;43.848;25.958;2022-07-06T03:39:29;20.60;;;13.57;;
22334;SDS011;11335;43.848;25.958;2022-07-06T03:42:15;16.05;;;13.13;;
22334;SDS011;11335;43.848;25.958;2022-07-06T03:45:01;16.75;;;13.13;;
22334;SDS011;11335;43.848;25.958;2022-07-06T03:47:46;16.90;;;13.18;;
22334;SDS011;11335;43.848;25.958;2022-07-06T03:50:32;19.52;;;12.95;;
22334;SDS011;11335;43.848;25.958;2022-07-06T03:53:18;18.48;;;13.75;;
22334;SDS011;11335;43.848;25.958;2022-07-06T03:56:04;14.60;;;12.52;;
22334;SDS011;11335;43.848;25.958;2022-07-06T03:59:08;18.63;;;13.35;;
22334;SDS011;11335;43.848;25.958;2022-07-06T04:01:54;15.00;;;13.25;;
22334;SDS011;11335;43.848;25.958;2022-07-06T04:04:40;17.35;;;13.40;;
22334;SDS011;11335;43.848;25.958;2022-07-06T04:07:25;15.15;;;13.55;;
22334;SDS011;11335;43.848;25.958;2022-07-06T04:10:11;19.15;;;14.27;;
22334;SDS011;11335;43.848;25.958;2022-07-06T04:12:57;15.68;;;12.85;;
22334;SDS011;11335;43.848;25.958;2022-07-06T04:15:43;19.05;;;13.77;;
22334;SDS011;11335;43.848;25.958;2022-07-06T04:18:29;17.02;;;13.38;;
22334;SDS011;11335;43.848;25.958;2022-07-06T04:21:14;15.48;;;12.82;;
22334;SDS011;11335;43.848;25.958;2022-07-06T04:24:00;15.05;;;13.23;;
22334;SDS011;11335;43.848;25.958;2022-07-06T04:26:46;16.45;;;13.57;;
22334;SDS011;11335;43.848;25.958;2022-07-06T04:29:32;15.82;;;13.50;;
22334;SDS011;11335;43.848;25.958;2022-07-06T04:32:17;18.42;;;13.15;;
22334;SDS011;11335;43.848;25.958;2022-07-06T04:35:04;16.92;;;13.50;;
22334;SDS011;11335;43.848;25.958;2022-07-06T04:37:50;18.50;;;13.07;;
22334;SDS011;11335;43.848;25.958;2022-07-06T04:40:36;16.27;;;13.05;;
22334;SDS011;11335;43.848;25.958;2022-07-06T04:43:22;18.02;;;13.82;;
22334;SDS011;11335;43.848;25.958;2022-07-06T04:46:07;17.30;;;15.02;;
22334;SDS011;11335;43.848;25.958;2022-07-06T04:48:53;21.33;;;16.08;;
22334;SDS011;11335;43.848;25.958;2022-07-06T04:51:39;18.17;;;15.30;;
22334;SDS011;11335;43.848;25.958;2022-07-06T04:54:25;20.80;;;17.08;;
22334;SDS011;11335;43.848;25.958;2022-07-06T04:57:11;20.50;;;15.82;;
22334;SDS011;11335;43.848;25.958;2022-07-06T04:59:56;18.75;;;16.50;;
22334;SDS011;11335;43.848;25.958;2022-07-06T05:02:42;22.27;;;16.33;;
22334;SDS011;11335;43.848;25.958;2022-07-06T05:05:28;20.65;;;15.32;;
22334;SDS011;11335;43.848;25.958;2022-07-06T05:08:14;23.83;;;15.95;;
22334;SDS011;11335;43.848;25.958;2022-07-06T05:11:00;24.45;;;16.08;;
22334;SDS011;11335;43.848;25.958;2022-07-06T05:13:45;20.85;;;15.93;;
22334;SDS011;11335;43.848;25.958;2022-07-06T05:16:31;21.55;;;16.25;;
22334;SDS011;11335;43.848;25.958;2022-07-06T05:19:18;20.75;;;15.32;;
22334;SDS011;11335;43.848;25.958;2022-07-06T05:22:03;20.88;;;14.75;;
22334;SDS011;11335;43.848;25.958;2022-07-06T05:24:50;18.27;;;14.57;;
22334;SDS011;11335;43.848;25.958;2022-07-06T05:27:36;17.77;;;14.80;;
22334;SDS011;11335;43.848;25.958;2022-07-06T05:30:22;18.02;;;15.77;;
22334;SDS011;11335;43.848;25.958;2022-07-06T05:33:08;17.13;;;14.50;;
22334;SDS011;11335;43.848;25.958;2022-07-06T05:35:53;18.25;;;13.95;;
22334;SDS011;11335;43.848;25.958;2022-07-06T05:38:39;16.98;;;13.55;;
22334;SDS011;11335;43.848;25.958;2022-07-06T05:41:25;21.50;;;13.65;;
22334;SDS011;11335;43.848;25.958;2022-07-06T05:44:11;18.00;;;13.20;;
22334;SDS011;11335;43.848;25.958;2022-07-06T05:46:56;15.88;;;13.55;;
22334;SDS011;11335;43.848;25.958;2022-07-06T05:50:02;17.40;;;12.63;;
22334;SDS011;11335;43.848;25.958;2022-07-06T05:52:59;19.42;;;13.15;;
22334;SDS011;11335;43.848;25.958;2022-07-06T05:55:46;20.25;;;12.77;;
22334;SDS011;11335;43.848;25.958;2022-07-06T05:58:32;17.10;;;12.52;;
22334;SDS011;11335;43.848;25.958;2022-07-06T06:01:18;16.45;;;12.75;;
22334;SDS011;11335;43.848;25.958;2022-07-06T06:04:04;17.95;;;12.50;;
22334;SDS011;11335;43.848;25.958;2022-07-06T06:06:49;16.08;;;12.20;;
22334;SDS011;11335;43.848;25.958;2022-07-06T06:09:35;14.13;;;12.25;;
22334;SDS011;11335;43.848;25.958;2022-07-06T06:12:21;15.98;;;12.15;;
22334;SDS011;11335;43.848;25.958;2022-07-06T06:15:07;13.77;;;12.13;;
22334;SDS011;11335;43.848;25.958;2022-07-06T06:17:54;16.90;;;11.77;;
22334;SDS011;11335;43.848;25.958;2022-07-06T06:20:39;14.20;;;11.45;;
22334;SDS011;11335;43.848;25.958;2022-07-06T06:23:25;17.17;;;12.13;;
22334;SDS011;11335;43.848;25.958;2022-07-06T06:26:11;20.13;;;13.93;;
22334;SDS011;11335;43.848;25.958;2022-07-06T06:28:57;17.08;;;12.88;;
22334;SDS011;11335;43.848;25.958;2022-07-06T06:31:43;15.68;;;12.73;;
22334;SDS011;11335;43.848;25.958;2022-07-06T06:34:29;14.10;;;11.60;;
22334;SDS011;11335;43.848;25.958;2022-07-06T06:37:14;20.98;;;11.57;;
22334;SDS011;11335;43.848;25.958;2022-07-06T06:40:00;18.45;;;12.50;;
22334;SDS011;11335;43.848;25.958;2022-07-06T06:42:47;13.98;;;12.27;;
22334;SDS011;11335;43.848;25.958;2022-07-06T06:45:32;23.10;;;13.40;;
22334;SDS011;11335;43.848;25.958;2022-07-06T06:48:18;22.40;;;15.00;;
22334;SDS011;11335;43.848;25.958;2022-07-06T06:51:04;17.67;;;11.85;;
22334;SDS011;11335;43.848;25.958;2022-07-06T06:53:50;13.55;;;11.52;;
22334;SDS011;11335;43.848;25.958;2022-07-06T06:56:36;14.68;;;11.85;;
22334;SDS011;11335;43.848;25.958;2022-07-06T06:59:24;16.27;;;11.80;;
22334;SDS011;11335;43.848;25.958;2022-07-06T07:02:09;15.85;;;12.30;;
22334;SDS011;11335;43.848;25.958;2022-07-06T07:04:55;17.80;;;11.75;;
22334;SDS011;11335;43.848;25.958;2022-07-06T07:07:41;13.85;;;12.02;;
22334;SDS011;11335;43.848;25.958;2022-07-06T07:10:27;13.00;;;11.45;;
22334;SDS011;11335;43.848;25.958;2022-07-06T07:13:12;16.40;;;10.95;;
22334;SDS011;11335;43.848;25.958;2022-07-06T07:15:58;19.60;;;15.45;;
22334;SDS011;11335;43.848;25.958;2022-07-06T07:18:44;16.30;;;11.63;;
22334;SDS011;11335;43.848;25.958;2022-07-06T07:21:30;16.20;;;11.43;;
22334;SDS011;11335;43.848;25.958;2022-07-06T07:24:15;13.82;;;10.70;;
22334;SDS011;11335;43.848;25.958;2022-07-06T07:27:01;15.00;;;10.57;;
22334;SDS011;11335;43.848;25.958;2022-07-06T07:29:47;13.98;;;10.48;;
22334;SDS011;11335;43.848;25.958;2022-07-06T07:32:33;15.30;;;10.68;;
22334;SDS011;11335;43.848;25.958;2022-07-06T07:35:19;14.00;;;9.98;;
22334;SDS011;11335;43.848;25.958;2022-07-06T07:38:05;15.45;;;10.23;;
22334;SDS011;11335;43.848;25.958;2022-07-06T07:40:53;16.45;;;9.70;;
22334;SDS011;11335;43.848;25.958;2022-07-06T07:43:39;16.33;;;9.73;;
22334;SDS011;11335;43.848;25.958;2022-07-06T07:46:24;14.40;;;10.25;;
22334;SDS011;11335;43.848;25.958;2022-07-06T07:49:10;15.85;;;9.85;;
22334;SDS011;11335;43.848;25.958;2022-07-06T07:51:56;12.18;;;9.65;;
22334;SDS011;11335;43.848;25.958;2022-07-06T07:54:42;14.60;;;9.57;;
22334;SDS011;11335;43.848;25.958;2022-07-06T07:57:27;13.52;;;9.30;;
22334;SDS011;11335;43.848;25.958;2022-07-06T08:00:13;12.27;;;9.05;;
22334;SDS011;11335;43.848;25.958;2022-07-06T08:02:59;12.63;;;9.30;;
22334;SDS011;11335;43.848;25.958;2022-07-06T08:05:46;12.40;;;9.60;;
22334;SDS011;11335;43.848;25.958;2022-07-06T08:08:33;16.27;;;11.57;;
22334;SDS011;11335;43.848;25.958;2022-07-06T08:11:18;14.98;;;8.85;;
22334;SDS011;11335;43.848;25.958;2022-07-06T08:14:04;13.05;;;8.98;;
22334;SDS011;11335;43.848;25.958;2022-07-06T08:16:50;13.45;;;8.52;;
22334;SDS011;11335;43.848;25.958;2022-07-06T08:19:42;14.38;;;8.68;;
22334;SDS011;11335;43.848;25.958;2022-07-06T08:22:28;13.95;;;11.50;;
22334;SDS011;11335;43.848;25.958;2022-07-06T08:25:15;11.38;;;9.20;;
22334;SDS011;11335;43.848;25.958;2022-07-06T08:28:00;10.40;;;7.97;;
22334;SDS011;11335;43.848;25.958;2022-07-06T08:30:46;11.80;;;8.50;;
22334;SDS011;11335;43.848;25.958;2022-07-06T08:33:32;9.35;;;7.80;;
22334;SDS011;11335;43.848;25.958;2022-07-06T08:36:18;13.52;;;7.70;;
22334;SDS011;11335;43.848;25.958;2022-07-06T08:39:05;8.18;;;7.38;;
22334;SDS011;11335;43.848;25.958;2022-07-06T08:41:51;12.10;;;8.13;;
22334;SDS011;11335;43.848;25.958;2022-07-06T08:44:37;14.18;;;8.15;;
22334;SDS011;11335;43.848;25.958;2022-07-06T08:47:23;14.30;;;7.88;;
22334;SDS011;11335;43.848;25.958;2022-07-06T08:50:11;9.32;;;7.30;;
22334;SDS011;11335;43.848;25.958;2022-07-06T08:52:57;13.00;;;6.97;;
22334;SDS011;11335;43.848;25.958;2022-07-06T08:55:43;15.40;;;7.50;;
22334;SDS011;11335;43.848;25.958;2022-07-06T08:58:29;9.75;;;7.28;;
22334;SDS011;11335;43.848;25.958;2022-07-06T09:01:15;9.82;;;6.80;;
22334;SDS011;11335;43.848;25.958;2022-07-06T09:04:02;8.45;;;6.75;;
22334;SDS011;11335;43.848;25.958;2022-07-06T09:06:53;10.52;;;7.15;;
22334;SDS011;11335;43.848;25.958;2022-07-06T09:09:40;13.65;;;7.30;;
22334;SDS011;11335;43.848;25.958;2022-07-06T09:12:27;11.38;;;7.50;;
22334;SDS011;11335;43.848;25.958;2022-07-06T09:15:14;13.45;;;7.22;;
22334;SDS011;11335;43.848;25.958;2022-07-06T09:18:02;12.48;;;7.60;;
22334;SDS011;11335;43.848;25.958;2022-07-06T09:20:48;13.13;;;7.57;;
22334;SDS011;11335;43.848;25.958;2022-07-06T09:23:35;11.00;;;8.60;;
22334;SDS011;11335;43.848;25.958;2022-07-06T09:26:22;11.18;;;8.15;;
22334;SDS011;11335;43.848;25.958;2022-07-06T09:29:08;15.32;;;9.00;;
22334;SDS011;11335;43.848;25.958;2022-07-06T09:31:59;11.23;;;8.57;;
22334;SDS011;11335;43.848;25.958;2022-07-06T09:34:46;18.95;;;11.32;;
22334;SDS011;11335;43.848;25.958;2022-07-06T09:37:32;15.15;;;9.18;;
22334;SDS011;11335;43.848;25.958;2022-07-06T09:40:18;14.90;;;11.15;;
22334;SDS011;11335;43.848;25.958;2022-07-06T09:43:10;11.63;;;9.55;;
22334;SDS011;11335;43.848;25.958;2022-07-06T09:46:04;24.27;;;16.80;;
22334;SDS011;11335;43.848;25.958;2022-07-06T09:48:50;14.90;;;9.95;;
22334;SDS011;11335;43.848;25.958;2022-07-06T09:51:38;22.85;;;14.15;;
22334;SDS011;11335;43.848;25.958;2022-07-06T09:54:24;13.90;;;10.13;;
22334;SDS011;11335;43.848;25.958;2022-07-06T09:57:10;11.77;;;9.82;;
22334;SDS011;11335;43.848;25.958;2022-07-06T09:59:57;12.57;;;10.15;;
22334;SDS011;11335;43.848;25.958;2022-07-06T10:02:43;14.30;;;9.82;;
22334;SDS011;11335;43.848;25.958;2022-07-06T10:05:30;10.48;;;9.23;;
22334;SDS011;11335;43.848;25.958;2022-07-06T10:08:16;10.30;;;9.20;;
22334;SDS011;11335;43.848;25.958;2022-07-06T10:11:02;13.40;;;9.48;;
22334;SDS011;11335;43.848;25.958;2022-07-06T10:13:49;31.85;;;10.18;;
22334;SDS011;11335;43.848;25.958;2022-07-06T10:16:39;13.35;;;10.55;;
22334;SDS011;11335;43.848;25.958;2022-07-06T10:19:25;9.90;;;8.93;;
22334;SDS011;11335;43.848;25.958;2022-07-06T10:22:13;13.30;;;8.80;;
22334;SDS011;11335;43.848;25.958;2022-07-06T10:25:01;9.98;;;8.38;;
22334;SDS011;11335;43.848;25.958;2022-07-06T10:27:47;12.50;;;8.23;;
22334;SDS011;11335;43.848;25.958;2022-07-06T10:30:33;11.23;;;7.97;;
22334;SDS011;11335;43.848;25.958;2022-07-06T10:33:19;14.32;;;8.50;;
22334;SDS011;11335;43.848;25.958;2022-07-06T10:36:05;12.82;;;9.30;;
22334;SDS011;11335;43.848;25.958;2022-07-06T10:38:53;13.98;;;8.75;;
22334;SDS011;11335;43.848;25.958;2022-07-06T10:41:39;15.00;;;9.27;;
22334;SDS011;11335;43.848;25.958;2022-07-06T10:44:26;10.63;;;8.00;;
22334;SDS011;11335;43.848;25.958;2022-07-06T10:47:12;13.93;;;8.27;;
22334;SDS011;11335;43.848;25.958;2022-07-06T10:50:02;12.38;;;7.70;;
22334;SDS011;11335;43.848;25.958;2022-07-06T10:55:36;10.48;;;8.10;;
22334;SDS011;11335;43.848;25.958;2022-07-06T11:01:39;11.48;;;8.02;;
22334;SDS011;11335;43.848;25.958;2022-07-06T11:04:30;12.00;;;8.77;;
22334;SDS011;11335;43.848;25.958;2022-07-06T11:07:18;15.48;;;9.10;;
22334;SDS011;11335;43.848;25.958;2022-07-06T11:10:04;10.52;;;7.70;;
22334;SDS011;11335;43.848;25.958;2022-07-06T11:12:58;10.07;;;6.85;;
22334;SDS011;11335;43.848;25.958;2022-07-06T11:15:48;8.52;;;7.55;;
22334;SDS011;11335;43.848;25.958;2022-07-06T11:18:38;10.55;;;6.97;;
22334;SDS011;11335;43.848;25.958;2022-07-06T11:24:30;19.65;;;7.53;;
22334;SDS011;11335;43.848;25.958;2022-07-06T11:27:18;7.85;;;7.05;;
22334;SDS011;11335;43.848;25.958;2022-07-06T11:30:04;9.52;;;6.88;;
22334;SDS011;11335;43.848;25.958;2022-07-06T11:32:52;12.27;;;7.28;;
22334;SDS011;11335;43.848;25.958;2022-07-06T11:35:38;8.82;;;6.97;;
22334;SDS011;11335;43.848;25.958;2022-07-06T11:38:26;9.65;;;6.45;;
22334;SDS011;11335;43.848;25.958;2022-07-06T11:41:13;10.18;;;6.53;;
22334;SDS011;11335;43.848;25.958;2022-07-06T11:44:00;14.75;;;6.43;;
22334;SDS011;11335;43.848;25.958;2022-07-06T11:46:46;10.38;;;6.65;;
22334;SDS011;11335;43.848;25.958;2022-07-06T11:49:32;12.35;;;7.35;;
22334;SDS011;11335;43.848;25.958;2022-07-06T11:52:22;15.48;;;6.63;;
22334;SDS011;11335;43.848;25.958;2022-07-06T11:55:09;12.77;;;8.75;;
22334;SDS011;11335;43.848;25.958;2022-07-06T11:57:55;7.80;;;6.45;;
22334;SDS011;11335;43.848;25.958;2022-07-06T12:00:42;10.63;;;6.28;;
22334;SDS011;11335;43.848;25.958;2022-07-06T12:03:28;9.93;;;6.28;;
22334;SDS011;11335;43.848;25.958;2022-07-06T12:09:04;13.18;;;5.88;;
22334;SDS011;11335;43.848;25.958;2022-07-06T12:11:51;9.82;;;6.53;;
22334;SDS011;11335;43.848;25.958;2022-07-06T12:14:38;11.27;;;6.28;;
22334;SDS011;11335;43.848;25.958;2022-07-06T12:17:25;8.85;;;6.15;;
22334;SDS011;11335;43.848;25.958;2022-07-06T12:20:11;10.95;;;6.35;;
22334;SDS011;11335;43.848;25.958;2022-07-06T12:23:03;11.07;;;6.40;;
22334;SDS011;11335;43.848;25.958;2022-07-06T12:25:51;11.90;;;6.40;;
22334;SDS011;11335;43.848;25.958;2022-07-06T12:28:40;9.13;;;6.10;;
22334;SDS011;11335;43.848;25.958;2022-07-06T12:31:36;8.35;;;5.78;;
22334;SDS011;11335;43.848;25.958;2022-07-06T12:34:24;9.48;;;6.20;;
22334;SDS011;11335;43.848;25.958;2022-07-06T12:37:12;10.93;;;6.07;;
22334;SDS011;11335;43.848;25.958;2022-07-06T12:39:58;11.65;;;6.53;;
22334;SDS011;11335;43.848;25.958;2022-07-06T12:42:47;10.90;;;6.00;;
22334;SDS011;11335;43.848;25.958;2022-07-06T12:45:33;8.88;;;5.88;;
22334;SDS011;11335;43.848;25.958;2022-07-06T12:48:22;11.00;;;6.30;;
22334;SDS011;11335;43.848;25.958;2022-07-06T12:51:08;8.35;;;6.30;;
22334;SDS011;11335;43.848;25.958;2022-07-06T12:54:11;9.80;;;5.97;;
22334;SDS011;11335;43.848;25.958;2022-07-06T12:56:59;10.38;;;6.43;;
22334;SDS011;11335;43.848;25.958;2022-07-06T13:02:39;10.65;;;6.78;;
22334;SDS011;11335;43.848;25.958;2022-07-06T13:05:26;10.63;;;7.25;;
22334;SDS011;11335;43.848;25.958;2022-07-06T13:08:14;8.45;;;6.85;;
22334;SDS011;11335;43.848;25.958;2022-07-06T13:11:00;9.18;;;6.70;;
22334;SDS011;11335;43.848;25.958;2022-07-06T13:13:46;8.90;;;6.32;;
22334;SDS011;11335;43.848;25.958;2022-07-06T13:16:32;10.57;;;6.00;;
22334;SDS011;11335;43.848;25.958;2022-07-06T13:19:19;13.88;;;6.93;;
22334;SDS011;11335;43.848;25.958;2022-07-06T13:22:05;11.35;;;6.57;;
22334;SDS011;11335;43.848;25.958;2022-07-06T13:24:51;10.07;;;6.68;;
22334;SDS011;11335;43.848;25.958;2022-07-06T13:27:37;10.02;;;6.32;;
22334;SDS011;11335;43.848;25.958;2022-07-06T13:30:22;9.80;;;6.68;;
22334;SDS011;11335;43.848;25.958;2022-07-06T13:33:08;12.15;;;6.72;;
22334;SDS011;11335;43.848;25.958;2022-07-06T13:35:54;7.35;;;6.40;;
22334;SDS011;11335;43.848;25.958;2022-07-06T13:38:40;9.63;;;6.63;;
22334;SDS011;11335;43.848;25.958;2022-07-06T13:41:25;15.57;;;6.35;;
22334;SDS011;11335;43.848;25.958;2022-07-06T13:44:11;12.13;;;6.20;;
22334;SDS011;11335;43.848;25.958;2022-07-06T13:46:57;12.80;;;6.50;;
22334;SDS011;11335;43.848;25.958;2022-07-06T13:49:43;11.38;;;6.07;;
22334;SDS011;11335;43.848;25.958;2022-07-06T13:52:32;11.40;;;6.60;;
22334;SDS011;11335;43.848;25.958;2022-07-06T13:55:18;9.15;;;6.80;;
22334;SDS011;11335;43.848;25.958;2022-07-06T13:58:04;6.95;;;6.25;;
22334;SDS011;11335;43.848;25.958;2022-07-06T14:00:50;8.70;;;6.88;;
22334;SDS011;11335;43.848;25.958;2022-07-06T14:03:36;10.65;;;7.03;;
22334;SDS011;11335;43.848;25.958;2022-07-06T14:06:23;8.70;;;7.47;;
22334;SDS011;11335;43.848;25.958;2022-07-06T14:09:08;8.82;;;7.63;;
22334;SDS011;11335;43.848;25.958;2022-07-06T14:11:54;9.48;;;6.93;;
22334;SDS011;11335;43.848;25.958;2022-07-06T14:14:40;8.65;;;6.93;;
22334;SDS011;11335;43.848;25.958;2022-07-06T14:17:26;7.95;;;6.35;;
22334;SDS011;11335;43.848;25.958;2022-07-06T14:20:12;11.90;;;6.60;;
22334;SDS011;11335;43.848;25.958;2022-07-06T14:22:57;9.43;;;7.60;;
22334;SDS011;11335;43.848;25.958;2022-07-06T14:25:43;12.93;;;7.10;;
22334;SDS011;11335;43.848;25.958;2022-07-06T14:28:30;18.23;;;8.18;;
22334;SDS011;11335;43.848;25.958;2022-07-06T14:31:16;12.88;;;7.60;;
22334;SDS011;11335;43.848;25.958;2022-07-06T14:34:02;9.50;;;6.57;;
22334;SDS011;11335;43.848;25.958;2022-07-06T14:36:48;8.32;;;6.80;;
22334;SDS011;11335;43.848;25.958;2022-07-06T14:39:33;9.25;;;6.93;;
22334;SDS011;11335;43.848;25.958;2022-07-06T14:42:19;11.77;;;7.03;;
22334;SDS011;11335;43.848;25.958;2022-07-06T14:45:05;9.55;;;7.40;;
22334;SDS011;11335;43.848;25.958;2022-07-06T14:47:51;13.23;;;7.93;;
22334;SDS011;11335;43.848;25.958;2022-07-06T14:50:37;9.73;;;6.97;;
22334;SDS011;11335;43.848;25.958;2022-07-06T14:53:23;10.88;;;6.93;;
22334;SDS011;11335;43.848;25.958;2022-07-06T14:56:09;10.00;;;7.88;;
22334;SDS011;11335;43.848;25.958;2022-07-06T14:58:55;10.43;;;8.38;;
22334;SDS011;11335;43.848;25.958;2022-07-06T15:01:41;10.18;;;7.63;;
22334;SDS011;11335;43.848;25.958;2022-07-06T15:04:26;12.07;;;9.30;;
22334;SDS011;11335;43.848;25.958;2022-07-06T15:07:12;11.75;;;9.95;;
22334;SDS011;11335;43.848;25.958;2022-07-06T15:09:58;14.43;;;10.40;;
22334;SDS011;11335;43.848;25.958;2022-07-06T15:12:44;13.75;;;9.63;;
22334;SDS011;11335;43.848;25.958;2022-07-06T15:15:29;11.40;;;10.02;;
22334;SDS011;11335;43.848;25.958;2022-07-06T15:18:15;13.30;;;10.55;;
22334;SDS011;11335;43.848;25.958;2022-07-06T15:21:01;15.52;;;9.90;;
22334;SDS011;11335;43.848;25.958;2022-07-06T15:23:47;12.32;;;10.70;;
22334;SDS011;11335;43.848;25.958;2022-07-06T15:26:33;12.95;;;11.23;;
22334;SDS011;11335;43.848;25.958;2022-07-06T15:29:19;16.30;;;11.75;;
22334;SDS011;11335;43.848;25.958;2022-07-06T15:32:05;14.80;;;10.65;;
22334;SDS011;11335;43.848;25.958;2022-07-06T15:34:51;15.27;;;10.90;;
22334;SDS011;11335;43.848;25.958;2022-07-06T15:37:37;16.55;;;12.77;;
22334;SDS011;11335;43.848;25.958;2022-07-06T15:40:23;17.20;;;12.50;;
22334;SDS011;11335;43.848;25.958;2022-07-06T15:43:10;21.50;;;16.63;;
22334;SDS011;11335;43.848;25.958;2022-07-06T15:45:58;18.33;;;12.18;;
22334;SDS011;11335;43.848;25.958;2022-07-06T15:48:45;14.45;;;11.43;;
22334;SDS011;11335;43.848;25.958;2022-07-06T15:51:31;14.13;;;12.05;;
22334;SDS011;11335;43.848;25.958;2022-07-06T15:54:19;15.02;;;12.07;;
22334;SDS011;11335;43.848;25.958;2022-07-06T15:57:05;14.00;;;12.35;;
22334;SDS011;11335;43.848;25.958;2022-07-06T15:59:51;47.47;;;13.00;;
22334;SDS011;11335;43.848;25.958;2022-07-06T16:02:37;15.02;;;12.85;;
22334;SDS011;11335;43.848;25.958;2022-07-06T16:05:23;16.42;;;13.02;;
22334;SDS011;11335;43.848;25.958;2022-07-06T16:08:10;15.70;;;13.23;;
22334;SDS011;11335;43.848;25.958;2022-07-06T16:10:55;17.17;;;13.07;;
22334;SDS011;11335;43.848;25.958;2022-07-06T16:13:42;19.05;;;13.45;;
22334;SDS011;11335;43.848;25.958;2022-07-06T16:16:28;14.43;;;12.27;;
22334;SDS011;11335;43.848;25.958;2022-07-06T16:19:14;16.40;;;11.77;;
22334;SDS011;11335;43.848;25.958;2022-07-06T16:22:00;14.77;;;13.18;;
22334;SDS011;11335;43.848;25.958;2022-07-06T16:24:45;14.25;;;12.82;;